sensor_id;sensor_type;location;lat;lon;timestamp;pressure;altitude;pressure_sealevel;temperature;humidity
17362;BME280;8798;51.938;4.348;2024-03-06T00:01:17;101516.00;;;8.75;95.39
17362;BME280;8798;51.938;4.348;2024-03-06T00:03:45;101526.59;;;8.76;95.29
17362;BME280;8798;51.938;4.348;2024-03-06T00:06:13;101536.22;;;8.79;95.17
17362;BME280;8798;51.938;4.348;2024-03-06T00:08:41;101550.44;;;8.79;95.25
17362;BME280;8798;51.938;4.348;2024-03-06T00:11:10;101556.66;;;8.80;95.24
17362;BME280;8798;51.938;4.348;2024-03-06T00:13:39;101562.75;;;8.82;95.62
17362;BME280;8798;51.938;4.348;2024-03-06T00:16:07;101576.03;;;8.83;95.57
17362;BME280;8798;51.938;4.348;2024-03-06T00:18:35;101592.84;;;8.86;95.23
17362;BME280;8798;51.938;4.348;2024-03-06T00:21:04;101594.53;;;8.87;95.51
17362;BME280;8798;51.938;4.348;2024-03-06T00:23:32;101601.56;;;8.88;95.14
17362;BME280;8798;51.938;4.348;2024-03-06T00:26:02;101612.19;;;8.89;95.06
17362;BME280;8798;51.938;4.348;2024-03-06T00:28:30;101621.94;;;8.90;95.28
17362;BME280;8798;51.938;4.348;2024-03-06T00:31:00;101621.06;;;8.90;95.29
17362;BME280;8798;51.938;4.348;2024-03-06T00:33:28;101622.78;;;8.91;95.32
17362;BME280;8798;51.938;4.348;2024-03-06T00:35:56;101626.31;;;8.91;95.55
17362;BME280;8798;51.938;4.348;2024-03-06T00:38:24;101635.19;;;8.92;95.08
17362;BME280;8798;51.938;4.348;2024-03-06T00:40:52;101636.94;;;8.93;95.43
17362;BME280;8798;51.938;4.348;2024-03-06T00:43:20;101647.50;;;8.94;95.48
17362;BME280;8798;51.938;4.348;2024-03-06T00:45:49;101654.59;;;8.95;95.28
17362;BME280;8798;51.938;4.348;2024-03-06T00:48:18;101666.16;;;8.96;94.66
17362;BME280;8798;51.938;4.348;2024-03-06T00:50:47;101665.16;;;8.97;95.37
17362;BME280;8798;51.938;4.348;2024-03-06T00:53:15;101677.72;;;8.96;95.72
17362;BME280;8798;51.938;4.348;2024-03-06T00:55:43;101667.00;;;8.96;95.00
17362;BME280;8798;51.938;4.348;2024-03-06T00:58:11;101674.94;;;8.98;95.61
17362;BME280;8798;51.938;4.348;2024-03-06T01:00:39;101676.72;;;8.97;95.50
17362;BME280;8798;51.938;4.348;2024-03-06T01:03:07;101681.25;;;8.97;95.35
17362;BME280;8798;51.938;4.348;2024-03-06T01:05:37;101684.91;;;8.96;95.18
17362;BME280;8798;51.938;4.348;2024-03-06T01:08:05;101691.72;;;9.00;95.29
17362;BME280;8798;51.938;4.348;2024-03-06T01:10:33;101691.72;;;9.00;95.65
17362;BME280;8798;51.938;4.348;2024-03-06T01:13:02;101704.88;;;9.03;95.51
17362;BME280;8798;51.938;4.348;2024-03-06T01:15:31;101707.69;;;9.01;95.25
17362;BME280;8798;51.938;4.348;2024-03-06T01:17:59;101718.28;;;9.03;95.24
17362;BME280;8798;51.938;4.348;2024-03-06T01:20:27;101718.16;;;9.04;95.48
17362;BME280;8798;51.938;4.348;2024-03-06T01:22:56;101726.19;;;9.04;95.67
17362;BME280;8798;51.938;4.348;2024-03-06T01:25:25;101720.81;;;9.04;95.60
17362;BME280;8798;51.938;4.348;2024-03-06T01:27:53;101726.19;;;9.04;95.54
17362;BME280;8798;51.938;4.348;2024-03-06T01:30:21;101728.88;;;9.04;95.58
17362;BME280;8798;51.938;4.348;2024-03-06T01:32:50;101720.97;;;9.03;95.40
17362;BME280;8798;51.938;4.348;2024-03-06T01:35:19;101703.53;;;8.97;95.37
17362;BME280;8798;51.938;4.348;2024-03-06T01:37:47;101680.00;;;8.90;95.10
17362;BME280;8798;51.938;4.348;2024-03-06T01:40:16;101666.75;;;8.88;95.59
17362;BME280;8798;51.938;4.348;2024-03-06T01:42:46;101661.63;;;8.85;96.00
17362;BME280;8798;51.938;4.348;2024-03-06T01:45:15;101663.44;;;8.85;95.43
17362;BME280;8798;51.938;4.348;2024-03-06T01:47:43;101658.22;;;8.83;95.77
17362;BME280;8798;51.938;4.348;2024-03-06T01:50:11;101651.16;;;8.82;95.64
17362;BME280;8798;51.938;4.348;2024-03-06T01:52:41;101646.03;;;8.79;95.59
17362;BME280;8798;51.938;4.348;2024-03-06T01:55:11;101643.47;;;8.77;95.56
17362;BME280;8798;51.938;4.348;2024-03-06T01:57:41;101633.97;;;8.73;95.83
17362;BME280;8798;51.938;4.348;2024-03-06T02:00:11;101629.59;;;8.72;95.47
17362;BME280;8798;51.938;4.348;2024-03-06T02:02:42;101631.41;;;8.72;95.69
17362;BME280;8798;51.938;4.348;2024-03-06T02:05:10;101638.47;;;8.73;95.37
17362;BME280;8798;51.938;4.348;2024-03-06T02:07:43;101625.31;;;8.70;95.55
17362;BME280;8798;51.938;4.348;2024-03-06T02:10:14;101626.31;;;8.69;95.65
17362;BME280;8798;51.938;4.348;2024-03-06T02:12:44;101618.53;;;8.66;95.26
17362;BME280;8798;51.938;4.348;2024-03-06T02:15:12;101609.75;;;8.64;95.36
17362;BME280;8798;51.938;4.348;2024-03-06T02:17:40;101600.13;;;8.61;95.85
17362;BME280;8798;51.938;4.348;2024-03-06T02:20:08;101597.56;;;8.59;95.59
17362;BME280;8798;51.938;4.348;2024-03-06T02:22:40;101595.97;;;8.57;95.40
17362;BME280;8798;51.938;4.348;2024-03-06T02:25:08;101592.44;;;8.56;95.48
17362;BME280;8798;51.938;4.348;2024-03-06T02:27:37;101590.03;;;8.53;95.73
17362;BME280;8798;51.938;4.348;2024-03-06T02:30:06;101578.44;;;8.53;95.70
17362;BME280;8798;51.938;4.348;2024-03-06T02:32:34;101583.09;;;8.51;95.54
17362;BME280;8798;51.938;4.348;2024-03-06T02:35:03;101587.56;;;8.50;95.65
17362;BME280;8798;51.938;4.348;2024-03-06T02:37:35;101584.03;;;8.50;95.54
17362;BME280;8798;51.938;4.348;2024-03-06T02:40:06;101579.78;;;8.47;95.37
17362;BME280;8798;51.938;4.348;2024-03-06T02:42:36;101586.13;;;8.46;95.60
17362;BME280;8798;51.938;4.348;2024-03-06T02:45:06;101572.84;;;8.45;95.42
17362;BME280;8798;51.938;4.348;2024-03-06T02:47:35;101578.28;;;8.43;95.61
17362;BME280;8798;51.938;4.348;2024-03-06T02:50:04;101567.72;;;8.42;95.62
17362;BME280;8798;51.938;4.348;2024-03-06T02:52:32;101563.44;;;8.39;95.45
17362;BME280;8798;51.938;4.348;2024-03-06T02:55:00;101552.97;;;8.36;95.54
17362;BME280;8798;51.938;4.348;2024-03-06T02:57:29;101552.34;;;8.32;95.64
17362;BME280;8798;51.938;4.348;2024-03-06T02:59:57;101535.69;;;8.29;95.32
17362;BME280;8798;51.938;4.348;2024-03-06T03:02:25;101535.69;;;8.29;95.43
17362;BME280;8798;51.938;4.348;2024-03-06T03:04:53;101534.09;;;8.26;96.04
17362;BME280;8798;51.938;4.348;2024-03-06T03:07:21;101522.78;;;8.23;95.45
17362;BME280;8798;51.938;4.348;2024-03-06T03:09:50;101524.72;;;8.21;95.33
17362;BME280;8798;51.938;4.348;2024-03-06T03:12:18;101507.22;;;8.16;95.53
17362;BME280;8798;51.938;4.348;2024-03-06T03:14:48;101490.41;;;8.14;95.87
17362;BME280;8798;51.938;4.348;2024-03-06T03:17:17;101496.84;;;8.12;95.89
17362;BME280;8798;51.938;4.348;2024-03-06T03:19:46;101489.06;;;8.09;96.10
17362;BME280;8798;51.938;4.348;2024-03-06T03:22:14;101481.16;;;8.07;95.87
17362;BME280;8798;51.938;4.348;2024-03-06T03:24:42;101480.56;;;8.04;95.35
17362;BME280;8798;51.938;4.348;2024-03-06T03:27:10;101475.31;;;8.02;95.29
17362;BME280;8798;51.938;4.348;2024-03-06T03:29:38;101480.66;;;8.02;95.84
17362;BME280;8798;51.938;4.348;2024-03-06T03:32:08;101478.09;;;8.01;95.38
17362;BME280;8798;51.938;4.348;2024-03-06T03:34:36;101476.41;;;8.00;96.10
17362;BME280;8798;51.938;4.348;2024-03-06T03:37:04;101476.66;;;7.96;95.98
17362;BME280;8798;51.938;4.348;2024-03-06T03:39:32;101478.44;;;7.96;95.49
17362;BME280;8798;51.938;4.348;2024-03-06T03:42:00;101476.88;;;7.93;95.90
17362;BME280;8798;51.938;4.348;2024-03-06T03:44:28;101466.41;;;7.90;95.52
17362;BME280;8798;51.938;4.348;2024-03-06T03:46:57;101454.13;;;7.88;95.86
17362;BME280;8798;51.938;4.348;2024-03-06T03:49:26;101461.41;;;7.86;95.57
17362;BME280;8798;51.938;4.348;2024-03-06T03:51:54;101457.06;;;7.85;96.00
17362;BME280;8798;51.938;4.348;2024-03-06T03:54:22;101455.31;;;7.84;95.72
17362;BME280;8798;51.938;4.348;2024-03-06T03:56:50;101454.72;;;7.80;95.40
17362;BME280;8798;51.938;4.348;2024-03-06T03:59:19;101444.28;;;7.77;96.39
17362;BME280;8798;51.938;4.348;2024-03-06T04:01:47;101429.44;;;7.73;95.19
17362;BME280;8798;51.938;4.348;2024-03-06T04:04:18;101421.75;;;7.68;96.35
17362;BME280;8798;51.938;4.348;2024-03-06T04:06:49;101411.31;;;7.65;95.26
17362;BME280;8798;51.938;4.348;2024-03-06T04:09:17;101404.38;;;7.63;96.22
17362;BME280;8798;51.938;4.348;2024-03-06T04:11:46;101397.56;;;7.59;96.11
17362;BME280;8798;51.938;4.348;2024-03-06T04:14:14;101385.41;;;7.54;96.05
17362;BME280;8798;51.938;4.348;2024-03-06T04:16:42;101379.44;;;7.51;95.62
17362;BME280;8798;51.938;4.348;2024-03-06T04:19:10;101369.97;;;7.47;96.02
17362;BME280;8798;51.938;4.348;2024-03-06T04:21:41;101359.41;;;7.45;95.39
17362;BME280;8798;51.938;4.348;2024-03-06T04:24:10;101365.72;;;7.44;95.44
17362;BME280;8798;51.938;4.348;2024-03-06T04:26:38;101364.09;;;7.42;95.40
17362;BME280;8798;51.938;4.348;2024-03-06T04:29:06;101366.91;;;7.40;96.12
17362;BME280;8798;51.938;4.348;2024-03-06T04:31:35;101360.94;;;7.37;95.90
17362;BME280;8798;51.938;4.348;2024-03-06T04:34:04;101353.06;;;7.35;95.74
17362;BME280;8798;51.938;4.348;2024-03-06T04:36:31;101347.09;;;7.31;96.44
17362;BME280;8798;51.938;4.348;2024-03-06T04:38:59;101346.50;;;7.28;95.68
17362;BME280;8798;51.938;4.348;2024-03-06T04:41:29;101332.50;;;7.24;95.89
17362;BME280;8798;51.938;4.348;2024-03-06T04:43:57;101320.22;;;7.22;95.75
17362;BME280;8798;51.938;4.348;2024-03-06T04:46:27;101318.78;;;7.18;95.61
17362;BME280;8798;51.938;4.348;2024-03-06T04:48:55;101319.03;;;7.15;96.03
17362;BME280;8798;51.938;4.348;2024-03-06T04:51:23;101311.97;;;7.14;96.15
17362;BME280;8798;51.938;4.348;2024-03-06T04:53:51;101320.06;;;7.12;95.81
17362;BME280;8798;51.938;4.348;2024-03-06T04:56:19;101323.84;;;7.09;95.61
17362;BME280;8798;51.938;4.348;2024-03-06T04:58:50;101318.63;;;7.08;95.69
17362;BME280;8798;51.938;4.348;2024-03-06T05:01:18;101316.19;;;7.05;96.51
17362;BME280;8798;51.938;4.348;2024-03-06T05:03:46;101323.34;;;7.04;96.02
17362;BME280;8798;51.938;4.348;2024-03-06T05:06:36;101318.13;;;7.03;95.55
17362;BME280;8798;51.938;4.348;2024-03-06T05:09:22;101316.66;;;6.99;95.65
17362;BME280;8798;51.938;4.348;2024-03-06T05:12:08;101306.31;;;6.94;95.93
17362;BME280;8798;51.938;4.348;2024-03-06T05:14:55;101295.03;;;6.91;96.25
17362;BME280;8798;51.938;4.348;2024-03-06T05:17:41;101283.00;;;6.85;95.56
17362;BME280;8798;51.938;4.348;2024-03-06T05:20:28;101284.06;;;6.82;96.36
17362;BME280;8798;51.938;4.348;2024-03-06T05:23:15;101286.13;;;6.79;96.19
17362;BME280;8798;51.938;4.348;2024-03-06T05:26:01;101265.13;;;6.74;95.71
17362;BME280;8798;51.938;4.348;2024-03-06T05:28:47;101260.13;;;6.70;96.02
17362;BME280;8798;51.938;4.348;2024-03-06T05:31:33;101241.78;;;6.65;96.13
17362;BME280;8798;51.938;4.348;2024-03-06T05:34:19;101235.09;;;6.59;95.68
17362;BME280;8798;51.938;4.348;2024-03-06T05:37:05;101219.44;;;6.55;96.04
17362;BME280;8798;51.938;4.348;2024-03-06T05:39:50;101217.09;;;6.50;95.68
17362;BME280;8798;51.938;4.348;2024-03-06T05:42:36;101214.56;;;6.49;96.51
17362;BME280;8798;51.938;4.348;2024-03-06T05:45:21;101213.94;;;6.45;95.96
17362;BME280;8798;51.938;4.348;2024-03-06T05:48:08;101203.75;;;6.39;96.23
17362;BME280;8798;51.938;4.348;2024-03-06T05:50:54;101189.78;;;6.35;95.56
17362;BME280;8798;51.938;4.348;2024-03-06T05:53:39;101198.00;;;6.32;96.23
17362;BME280;8798;51.938;4.348;2024-03-06T05:56:26;101186.75;;;6.29;95.12
17362;BME280;8798;51.938;4.348;2024-03-06T05:59:12;101179.19;;;6.22;96.15
17362;BME280;8798;51.938;4.348;2024-03-06T06:01:40;101164.25;;;6.20;96.37
17362;BME280;8798;51.938;4.348;2024-03-06T06:04:12;101165.47;;;6.16;96.16
17362;BME280;8798;51.938;4.348;2024-03-06T06:06:40;101164.75;;;6.14;96.14
17362;BME280;8798;51.938;4.348;2024-03-06T06:09:09;101158.75;;;6.10;95.61
17362;BME280;8798;51.938;4.348;2024-03-06T06:11:43;101153.78;;;6.06;96.36
17362;BME280;8798;51.938;4.348;2024-03-06T06:14:11;101158.41;;;6.03;96.39
17362;BME280;8798;51.938;4.348;2024-03-06T06:16:39;101157.66;;;6.01;96.30
17362;BME280;8798;51.938;4.348;2024-03-06T06:19:07;101160.44;;;6.00;96.16
17362;BME280;8798;51.938;4.348;2024-03-06T06:21:37;101165.00;;;5.98;95.97
17362;BME280;8798;51.938;4.348;2024-03-06T06:24:05;101151.91;;;5.95;96.36
17362;BME280;8798;51.938;4.348;2024-03-06T06:26:34;101148.63;;;5.91;95.77
17362;BME280;8798;51.938;4.348;2024-03-06T06:29:02;101157.69;;;5.89;96.29
17362;BME280;8798;51.938;4.348;2024-03-06T06:31:31;101154.28;;;5.87;95.96
17362;BME280;8798;51.938;4.348;2024-03-06T06:33:59;101155.34;;;5.84;96.64
17362;BME280;8798;51.938;4.348;2024-03-06T06:36:32;101146.63;;;5.82;95.50
17362;BME280;8798;51.938;4.348;2024-03-06T06:39:02;101158.22;;;5.81;95.92
17362;BME280;8798;51.938;4.348;2024-03-06T06:41:33;101164.44;;;5.81;95.74
17362;BME280;8798;51.938;4.348;2024-03-06T06:44:01;101175.19;;;5.80;95.78
17362;BME280;8798;51.938;4.348;2024-03-06T06:46:29;101194.59;;;5.82;95.73
17362;BME280;8798;51.938;4.348;2024-03-06T06:48:58;101222.75;;;5.86;96.57
17362;BME280;8798;51.938;4.348;2024-03-06T06:51:26;101233.19;;;5.89;95.58
17362;BME280;8798;51.938;4.348;2024-03-06T06:53:54;101261.28;;;5.93;96.02
17362;BME280;8798;51.938;4.348;2024-03-06T06:56:27;101287.78;;;5.96;95.73
17362;BME280;8798;51.938;4.348;2024-03-06T06:58:55;101298.56;;;5.95;96.36
17362;BME280;8798;51.938;4.348;2024-03-06T07:01:24;101288.88;;;5.94;95.78
17362;BME280;8798;51.938;4.348;2024-03-06T07:03:54;101312.63;;;5.97;95.87
17362;BME280;8798;51.938;4.348;2024-03-06T07:06:22;101333.88;;;5.98;95.53
17362;BME280;8798;51.938;4.348;2024-03-06T07:08:51;101337.47;;;5.97;96.34
17362;BME280;8798;51.938;4.348;2024-03-06T07:11:19;101356.13;;;5.97;95.75
17362;BME280;8798;51.938;4.348;2024-03-06T20:08:39;101399.41;;;8.59;96.02
17362;BME280;8798;51.938;4.348;2024-03-06T20:11:07;101401.34;;;8.57;95.60
17362;BME280;8798;51.938;4.348;2024-03-06T20:13:42;101403.56;;;8.52;95.94
17362;BME280;8798;51.938;4.348;2024-03-06T20:16:10;101399.31;;;8.50;95.90
17362;BME280;8798;51.938;4.348;2024-03-06T20:18:38;101401.25;;;8.48;96.04
17362;BME280;8798;51.938;4.348;2024-03-06T20:21:06;101420.13;;;8.46;95.84
17362;BME280;8798;51.938;4.348;2024-03-06T20:23:35;101424.84;;;8.43;95.98
17362;BME280;8798;51.938;4.348;2024-03-06T20:26:04;101419.75;;;8.39;96.07
17362;BME280;8798;51.938;4.348;2024-03-06T20:28:33;101424.50;;;8.36;96.04
17362;BME280;8798;51.938;4.348;2024-03-06T20:31:01;101423.88;;;8.32;96.21
17362;BME280;8798;51.938;4.348;2024-03-06T20:33:29;101421.44;;;8.29;95.88
17362;BME280;8798;51.938;4.348;2024-03-06T20:35:57;101423.50;;;8.26;95.92
17362;BME280;8798;51.938;4.348;2024-03-06T20:38:25;101426.31;;;8.24;95.73
17362;BME280;8798;51.938;4.348;2024-03-06T20:40:54;101437.13;;;8.23;96.23
17362;BME280;8798;51.938;4.348;2024-03-06T20:43:23;101433.13;;;8.17;96.03
17362;BME280;8798;51.938;4.348;2024-03-06T20:45:51;101428.88;;;8.14;95.87
17362;BME280;8798;51.938;4.348;2024-03-06T20:48:19;101432.75;;;8.10;95.55
17362;BME280;8798;51.938;4.348;2024-03-06T20:50:47;101433.00;;;8.07;96.48
17362;BME280;8798;51.938;4.348;2024-03-06T20:53:15;101424.38;;;8.04;95.82
17362;BME280;8798;51.938;4.348;2024-03-06T20:55:43;101422.91;;;8.00;95.12
17362;BME280;8798;51.938;4.348;2024-03-06T20:58:12;101430.19;;;7.97;95.79
17362;BME280;8798;51.938;4.348;2024-03-06T21:00:42;101452.44;;;7.98;95.83
17362;BME280;8798;51.938;4.348;2024-03-06T21:03:10;101463.13;;;7.98;96.16
17362;BME280;8798;51.938;4.348;2024-03-06T21:05:39;101472.16;;;7.97;96.08
17362;BME280;8798;51.938;4.348;2024-03-06T21:08:07;101489.16;;;7.96;96.17
17362;BME280;8798;51.938;4.348;2024-03-06T21:10:35;101481.38;;;7.93;96.25
17362;BME280;8798;51.938;4.348;2024-03-06T21:13:06;101482.47;;;7.90;96.22
17362;BME280;8798;51.938;4.348;2024-03-06T21:15:34;101496.69;;;7.91;95.61
17362;BME280;8798;51.938;4.348;2024-03-06T21:18:05;101514.56;;;7.90;95.37
17362;BME280;8798;51.938;4.348;2024-03-06T21:20:34;101523.44;;;7.91;95.83
17362;BME280;8798;51.938;4.348;2024-03-06T21:23:02;101528.06;;;7.89;96.07
17362;BME280;8798;51.938;4.348;2024-03-06T21:25:30;101532.53;;;7.88;95.79
17362;BME280;8798;51.938;4.348;2024-03-06T21:27:59;101544.31;;;7.86;95.96
17362;BME280;8798;51.938;4.348;2024-03-06T21:30:27;101557.69;;;7.86;96.05
17362;BME280;8798;51.938;4.348;2024-03-06T21:32:55;101564.88;;;7.85;96.10
17362;BME280;8798;51.938;4.348;2024-03-06T21:35:24;101560.63;;;7.83;95.60
17362;BME280;8798;51.938;4.348;2024-03-06T21:37:53;101574.09;;;7.81;95.75
17362;BME280;8798;51.938;4.348;2024-03-06T21:40:21;101574.22;;;7.80;95.86
17362;BME280;8798;51.938;4.348;2024-03-06T21:42:50;101580.53;;;7.79;95.54
17362;BME280;8798;51.938;4.348;2024-03-06T21:45:18;101590.50;;;7.77;96.02
17362;BME280;8798;51.938;4.348;2024-03-06T21:47:46;101595.97;;;7.75;96.18
17362;BME280;8798;51.938;4.348;2024-03-06T21:50:15;101596.06;;;7.73;95.88
17362;BME280;8798;51.938;4.348;2024-03-06T21:52:44;101613.09;;;7.72;95.35
17362;BME280;8798;51.938;4.348;2024-03-06T21:55:12;101606.16;;;7.70;95.91
17362;BME280;8798;51.938;4.348;2024-03-06T21:57:40;101610.75;;;7.68;96.20
17362;BME280;8798;51.938;4.348;2024-03-06T22:00:09;101617.94;;;7.67;95.55
17362;BME280;8798;51.938;4.348;2024-03-06T22:02:41;101626.06;;;7.66;96.08
17362;BME280;8798;51.938;4.348;2024-03-06T22:05:09;101633.34;;;7.64;96.10
17362;BME280;8798;51.938;4.348;2024-03-06T22:07:37;101627.28;;;7.62;95.83
17362;BME280;8798;51.938;4.348;2024-03-06T22:10:08;101633.69;;;7.59;96.02
17362;BME280;8798;51.938;4.348;2024-03-06T22:12:36;101637.31;;;7.58;95.82
17362;BME280;8798;51.938;4.348;2024-03-06T22:15:05;101644.50;;;7.58;96.53
17362;BME280;8798;51.938;4.348;2024-03-06T22:17:33;101654.34;;;7.57;95.52
17362;BME280;8798;51.938;4.348;2024-03-06T22:20:02;101660.63;;;7.56;96.24
17362;BME280;8798;51.938;4.348;2024-03-06T22:22:30;101672.16;;;7.57;96.14
17362;BME280;8798;51.938;4.348;2024-03-06T22:24:58;101688.22;;;7.57;96.07
17362;BME280;8798;51.938;4.348;2024-03-06T22:27:27;101698.06;;;7.56;95.61
17362;BME280;8798;51.938;4.348;2024-03-06T22:29:55;101706.94;;;7.57;96.22
17362;BME280;8798;51.938;4.348;2024-03-06T22:32:24;101715.06;;;7.55;95.71
17362;BME280;8798;51.938;4.348;2024-03-06T22:34:52;101709.81;;;7.53;95.55
17362;BME280;8798;51.938;4.348;2024-03-06T22:37:20;101715.41;;;7.50;95.83
17362;BME280;8798;51.938;4.348;2024-03-06T22:39:48;101713.72;;;7.49;96.13
17362;BME280;8798;51.938;4.348;2024-03-06T22:42:16;101715.63;;;7.47;95.95
17362;BME280;8798;51.938;4.348;2024-03-06T22:44:45;101722.81;;;7.47;95.66
17362;BME280;8798;51.938;4.348;2024-03-06T22:47:14;101737.13;;;7.46;95.85
17362;BME280;8798;51.938;4.348;2024-03-06T22:49:42;101738.84;;;7.47;95.94
17362;BME280;8798;51.938;4.348;2024-03-06T22:52:10;101747.94;;;7.44;96.30
17362;BME280;8798;51.938;4.348;2024-03-06T22:54:38;101757.66;;;7.45;95.56
17362;BME280;8798;51.938;4.348;2024-03-06T22:57:06;101770.03;;;7.46;95.91
17362;BME280;8798;51.938;4.348;2024-03-06T22:59:36;101792.19;;;7.48;96.04
17362;BME280;8798;51.938;4.348;2024-03-06T23:02:06;101807.28;;;7.49;96.35
17362;BME280;8798;51.938;4.348;2024-03-06T23:04:34;101816.13;;;7.50;95.80
17362;BME280;8798;51.938;4.348;2024-03-06T23:07:02;101822.44;;;7.49;96.09
17362;BME280;8798;51.938;4.348;2024-03-06T23:09:30;101824.38;;;7.47;96.09
17362;BME280;8798;51.938;4.348;2024-03-06T23:11:58;101833.25;;;7.47;95.87
17362;BME280;8798;51.938;4.348;2024-03-06T23:14:26;101836.88;;;7.46;95.93
17362;BME280;8798;51.938;4.348;2024-03-06T23:16:55;101837.84;;;7.45;96.06
17362;BME280;8798;51.938;4.348;2024-03-06T23:19:24;101842.44;;;7.43;96.01
17362;BME280;8798;51.938;4.348;2024-03-06T23:21:52;101850.44;;;7.43;96.12
17362;BME280;8798;51.938;4.348;2024-03-06T23:24:20;101859.44;;;7.42;96.15
17362;BME280;8798;51.938;4.348;2024-03-06T23:26:48;101858.56;;;7.42;96.10
17362;BME280;8798;51.938;4.348;2024-03-06T23:29:16;101855.16;;;7.40;95.76
17362;BME280;8798;51.938;4.348;2024-03-06T23:31:44;101864.97;;;7.39;95.73
17362;BME280;8798;51.938;4.348;2024-03-06T23:34:12;101864.25;;;7.37;96.32
17362;BME280;8798;51.938;4.348;2024-03-06T23:36:41;101865.31;;;7.35;95.84
17362;BME280;8798;51.938;4.348;2024-03-06T23:39:09;101869.78;;;7.34;95.65
17362;BME280;8798;51.938;4.348;2024-03-06T23:41:39;101871.72;;;7.32;96.53
17362;BME280;8798;51.938;4.348;2024-03-06T23:44:07;101881.53;;;7.31;95.61
17362;BME280;8798;51.938;4.348;2024-03-06T23:46:35;101870.13;;;7.29;96.17
17362;BME280;8798;51.938;4.348;2024-03-06T23:49:03;101878.25;;;7.28;95.69
17362;BME280;8798;51.938;4.348;2024-03-06T23:51:31;101865.94;;;7.25;96.47
17362;BME280;8798;51.938;4.348;2024-03-06T23:54:01;101873.28;;;7.22;96.22
17362;BME280;8798;51.938;4.348;2024-03-06T23:56:29;101866.34;;;7.19;95.88
17362;BME280;8798;51.938;4.348;2024-03-06T23:58:58;101863.81;;;7.18;95.67
